createdAt,value
2022-10-23T00:01:27.634Z,21.38
2022-10-23T00:04:00.679Z,25.58
2022-10-23T00:06:29.416Z,21.02
2022-10-23T00:08:56.793Z,25.33
2022-10-23T00:11:26.615Z,18.27
2022-10-23T00:13:59.062Z,18.48
2022-10-23T00:16:26.483Z,19.15
2022-10-23T00:18:53.239Z,22.55
2022-10-23T00:21:21.130Z,25.50
2022-10-23T00:23:47.974Z,19.40
2022-10-23T00:26:15.975Z,21.85
2022-10-23T00:28:50.557Z,23.67
2022-10-23T00:31:18.636Z,20.63
2022-10-23T00:33:46.051Z,26.20
2022-10-23T00:36:15.265Z,24.40
2022-10-23T00:38:44.080Z,25.42
2022-10-23T00:41:17.159Z,20.15
2022-10-23T00:44:04.842Z,20.23
2022-10-23T00:46:32.615Z,22.08
2022-10-23T00:49:00.450Z,21.45
2022-10-23T00:51:32.299Z,18.33
2022-10-23T00:54:22.869Z,19.80
2022-10-23T00:56:49.424Z,16.23
2022-10-23T00:59:16.262Z,22.63
2022-10-23T01:01:43.271Z,21.45
2022-10-23T01:04:10.799Z,19.75
2022-10-23T01:06:44.655Z,23.48
2022-10-23T01:09:20.666Z,20.83
2022-10-23T01:11:59.121Z,25.83
2022-10-23T01:14:38.307Z,23.90
2022-10-23T01:17:20.434Z,19.55
2022-10-23T01:20:31.192Z,18.73
2022-10-23T01:23:23.397Z,19.27
2022-10-23T01:26:28.824Z,23.42
2022-10-23T01:29:10.094Z,21.00
2022-10-23T01:31:45.041Z,15.20
2022-10-23T01:34:19.659Z,24.00
2022-10-23T01:36:49.857Z,24.63
2022-10-23T01:39:27.457Z,18.73
2022-10-23T01:42:08.311Z,17.38
2022-10-23T01:44:44.475Z,24.00
2022-10-23T01:47:13.563Z,19.67
2022-10-23T01:49:57.885Z,19.02
2022-10-23T01:52:25.469Z,26.50
2022-10-23T01:54:58.073Z,19.02
2022-10-23T01:57:29.758Z,18.77
2022-10-23T02:00:06.090Z,15.30
2022-10-23T02:02:39.301Z,17.42
2022-10-23T02:05:18.073Z,16.83
2022-10-23T02:07:45.788Z,23.35
2022-10-23T02:10:14.476Z,18.70
2022-10-23T02:12:50.162Z,19.63
2022-10-23T02:15:28.767Z,21.92
2022-10-23T02:18:03.276Z,24.55
2022-10-23T02:20:30.180Z,23.98
2022-10-23T02:23:11.583Z,18.75
2022-10-23T02:26:07.837Z,24.98
2022-10-23T02:31:09.924Z,18.83
2022-10-23T02:33:36.958Z,20.83
2022-10-23T02:36:04.254Z,20.30
2022-10-23T02:38:42.954Z,21.30
2022-10-23T02:41:31.874Z,22.33
2022-10-23T02:44:04.697Z,17.95
2022-10-23T02:46:41.420Z,20.05
2022-10-23T02:49:23.738Z,13.65
2022-10-23T02:51:57.962Z,15.55
2022-10-23T02:54:27.634Z,18.77
2022-10-23T02:57:04.549Z,24.42
2022-10-23T02:59:47.924Z,16.23
2022-10-23T03:02:38.320Z,17.45
2022-10-23T03:05:10.197Z,17.52
2022-10-23T03:07:40.153Z,20.30
2022-10-23T03:10:10.833Z,14.35
2022-10-23T03:12:38.311Z,18.33
2022-10-23T03:15:07.708Z,19.13
2022-10-23T03:17:34.586Z,20.05
2022-10-23T03:20:02.363Z,15.18
2022-10-23T03:22:29.333Z,18.48
2022-10-23T03:24:56.561Z,16.92
2022-10-23T03:27:23.445Z,18.88
2022-10-23T03:29:50.290Z,20.17
2022-10-23T03:32:18.316Z,17.13
2022-10-23T03:34:45.292Z,17.73
2022-10-23T03:37:12.664Z,21.67
2022-10-23T03:39:39.545Z,18.33
2022-10-23T03:42:06.725Z,21.50
2022-10-23T03:44:34.441Z,19.35
2022-10-23T03:47:02.460Z,15.35
2022-10-23T03:49:29.329Z,17.00
2022-10-23T03:52:03.537Z,15.35
2022-10-23T03:54:30.501Z,16.67
2022-10-23T03:56:57.957Z,14.52
2022-10-23T03:59:26.236Z,16.85
2022-10-23T04:01:53.874Z,17.63
2022-10-23T04:04:20.790Z,20.33
2022-10-23T04:06:48.122Z,14.32
2022-10-23T04:09:15.335Z,12.68
2022-10-23T04:11:42.391Z,16.13
2022-10-23T04:14:12.883Z,17.60
2022-10-23T04:16:39.839Z,16.08
2022-10-23T04:19:06.691Z,15.73
2022-10-23T04:21:33.668Z,17.17
2022-10-23T04:24:01.244Z,19.48
2022-10-23T04:26:28.194Z,17.50
2022-10-23T04:28:55.001Z,13.77
2022-10-23T04:31:21.977Z,16.80
2022-10-23T04:33:49.507Z,15.35
2022-10-23T04:36:29.206Z,15.05
2022-10-23T04:38:59.020Z,21.27
2022-10-23T04:41:26.108Z,17.23
2022-10-23T04:43:52.901Z,17.00
2022-10-23T04:46:20.108Z,19.02
2022-10-23T04:48:48.372Z,15.20
2022-10-23T04:51:15.347Z,13.90
2022-10-23T04:53:59.241Z,14.68
2022-10-23T04:56:44.911Z,17.75
2022-10-23T04:59:16.026Z,13.20
2022-10-23T05:01:43.090Z,11.80
2022-10-23T05:04:10.107Z,13.45
2022-10-23T05:06:56.904Z,14.50
2022-10-23T05:09:42.406Z,17.10
2022-10-23T05:12:17.580Z,12.10
2022-10-23T05:14:44.424Z,11.25
2022-10-23T05:17:42.712Z,14.10
2022-10-23T05:20:14.508Z,19.80
2022-10-23T05:22:44.453Z,10.65
2022-10-23T05:25:13.453Z,16.58
2022-10-23T05:27:45.369Z,13.40
2022-10-23T05:30:14.503Z,15.73
2022-10-23T05:32:41.769Z,17.92
2022-10-23T05:35:19.057Z,14.60
2022-10-23T05:37:49.992Z,14.55
2022-10-23T05:40:23.933Z,17.52
2022-10-23T05:42:56.394Z,14.98
2022-10-23T05:45:34.649Z,10.90
2022-10-23T05:48:35.356Z,15.80
2022-10-23T05:51:29.873Z,11.85
2022-10-23T05:54:07.729Z,15.30
2022-10-23T05:56:41.613Z,16.40
2022-10-23T05:59:31.200Z,11.57
2022-10-23T06:02:13.202Z,12.52
2022-10-23T06:05:07.164Z,12.98
2022-10-23T06:08:00.584Z,17.15
2022-10-23T06:10:28.320Z,16.60
2022-10-23T06:12:58.911Z,12.85
2022-10-23T06:15:26.855Z,15.77
2022-10-23T06:18:02.029Z,18.40
2022-10-23T06:20:30.998Z,19.42
2022-10-23T06:23:06.632Z,17.50
2022-10-23T06:25:56.846Z,14.48
2022-10-23T06:28:34.958Z,17.17
2022-10-23T06:31:06.525Z,16.10
2022-10-23T06:33:33.453Z,22.88
2022-10-23T06:36:05.411Z,17.90
2022-10-23T06:38:37.654Z,20.15
2022-10-23T06:41:05.685Z,17.58
2022-10-23T06:43:36.783Z,23.40
2022-10-23T06:46:27.103Z,16.75
2022-10-23T06:49:22.925Z,21.20
2022-10-23T06:51:50.380Z,18.88
2022-10-23T06:54:21.200Z,20.40
2022-10-23T06:56:51.409Z,18.23
2022-10-23T06:59:22.509Z,18.90
2022-10-23T07:04:25.371Z,21.75
2022-10-23T07:06:57.264Z,15.70
2022-10-23T07:09:29.675Z,19.15
2022-10-23T07:11:56.720Z,15.00
2022-10-23T07:14:32.285Z,21.58
2022-10-23T07:17:01.426Z,18.88
2022-10-23T07:19:29.035Z,18.48
2022-10-23T07:21:57.505Z,19.13
2022-10-23T07:24:43.038Z,15.10
2022-10-23T07:27:22.957Z,14.00
2022-10-23T07:29:55.697Z,13.63
2022-10-23T07:32:24.415Z,18.98
2022-10-23T07:35:12.125Z,14.88
2022-10-23T07:37:42.899Z,14.32
2022-10-23T07:40:12.024Z,14.13
2022-10-23T07:42:43.820Z,13.70
2022-10-23T07:45:12.484Z,14.35
2022-10-23T07:47:42.381Z,12.00
2022-10-23T07:50:11.471Z,15.45
2022-10-23T07:52:38.343Z,13.02
2022-10-23T07:55:11.257Z,9.55
2022-10-23T07:57:44.031Z,11.48
2022-10-23T08:00:32.898Z,12.73
2022-10-23T08:03:12.726Z,12.48
2022-10-23T08:05:40.037Z,13.40
2022-10-23T08:08:06.830Z,8.10
2022-10-23T08:10:34.313Z,8.48
2022-10-23T08:13:01.532Z,14.60
2022-10-23T08:15:49.906Z,11.38
2022-10-23T08:18:41.411Z,15.27
2022-10-23T08:21:08.411Z,8.68
2022-10-23T08:23:35.284Z,10.30
2022-10-23T08:26:05.426Z,10.10
2022-10-23T08:28:32.912Z,15.18
2022-10-23T08:31:10.985Z,12.75
2022-10-23T08:33:39.087Z,11.07
2022-10-23T08:36:06.699Z,15.82
2022-10-23T08:38:35.567Z,8.30
2022-10-23T08:41:05.986Z,12.95
2022-10-23T08:43:54.805Z,13.73
2022-10-23T08:46:37.571Z,12.77
2022-10-23T08:49:48.376Z,15.18
2022-10-23T08:52:50.839Z,12.90
2022-10-23T08:55:22.280Z,9.25
2022-10-23T08:58:05.594Z,10.25
2022-10-23T09:00:33.314Z,11.63
2022-10-23T09:03:04.411Z,8.10
2022-10-23T09:05:48.793Z,8.23
2022-10-23T09:08:38.413Z,10.60
2022-10-23T09:11:47.477Z,8.45
2022-10-23T09:14:49.432Z,6.15
2022-10-23T09:17:39.140Z,8.77
2022-10-23T09:20:27.959Z,9.23
2022-10-23T09:22:58.891Z,10.73
2022-10-23T09:25:29.436Z,12.70
2022-10-23T09:28:02.923Z,6.75
2022-10-23T09:30:39.870Z,7.68
2022-10-23T09:33:17.773Z,10.27
2022-10-23T09:36:03.181Z,4.70
2022-10-23T09:38:39.267Z,5.03
2022-10-23T09:41:30.696Z,11.55
2022-10-23T09:44:25.996Z,6.28
2022-10-23T09:46:55.658Z,6.85
2022-10-23T09:49:31.365Z,7.45
2022-10-23T09:52:10.099Z,8.30
2022-10-23T09:54:38.805Z,8.07
2022-10-23T09:57:33.795Z,9.40
2022-10-23T10:00:22.491Z,5.57
2022-10-23T10:03:06.609Z,7.15
2022-10-23T10:05:38.846Z,6.25
2022-10-23T10:08:26.336Z,11.82
2022-10-23T10:11:06.749Z,9.68
2022-10-23T10:13:33.544Z,7.95
2022-10-23T10:16:06.437Z,8.18
2022-10-23T10:18:46.132Z,13.90
2022-10-23T10:21:27.829Z,7.18
2022-10-23T10:24:05.865Z,11.30
2022-10-23T10:26:44.270Z,10.80
2022-10-23T10:29:38.790Z,8.50
2022-10-23T10:32:06.021Z,9.23
2022-10-23T10:35:00.036Z,9.23
2022-10-23T10:37:55.493Z,8.02
2022-10-23T10:40:32.106Z,6.47
2022-10-23T10:43:36.875Z,7.47
2022-10-23T10:46:23.993Z,8.23
2022-10-23T10:49:22.061Z,8.95
2022-10-23T10:52:20.784Z,8.15
2022-10-23T10:55:18.341Z,6.35
2022-10-23T10:58:01.230Z,7.97
2022-10-23T11:00:31.128Z,9.27
2022-10-23T11:03:02.878Z,7.57
2022-10-23T11:05:44.511Z,8.30
2022-10-23T11:08:29.689Z,8.60
2022-10-23T11:11:08.092Z,10.97
2022-10-23T11:13:38.889Z,10.27
2022-10-23T11:16:21.245Z,9.18
2022-10-23T11:19:22.915Z,7.18
2022-10-23T11:21:56.399Z,8.88
2022-10-23T11:24:55.746Z,7.75
2022-10-23T11:28:04.433Z,7.07
2022-10-23T11:30:46.066Z,7.93
2022-10-23T11:33:32.011Z,7.25
2022-10-23T11:38:39.477Z,10.07
2022-10-23T11:41:33.979Z,9.02
2022-10-23T11:44:04.571Z,6.20
2022-10-23T11:46:38.990Z,5.70
2022-10-23T11:49:20.827Z,8.27
2022-10-23T11:51:47.726Z,9.35
2022-10-23T11:54:17.500Z,5.68
2022-10-23T11:57:10.378Z,8.70
2022-10-23T11:59:58.083Z,13.00
2022-10-23T12:02:32.917Z,5.75
2022-10-23T12:05:22.362Z,7.45
2022-10-23T12:07:56.241Z,11.85
2022-10-23T12:10:29.924Z,6.32
2022-10-23T12:12:58.678Z,9.75
2022-10-23T12:15:26.440Z,10.38
2022-10-23T12:17:55.560Z,7.97
2022-10-23T12:20:44.834Z,5.72
2022-10-23T12:23:32.965Z,7.15
2022-10-23T12:26:11.848Z,9.50
2022-10-23T12:29:10.878Z,6.60
2022-10-23T12:31:48.049Z,14.27
2022-10-23T12:34:17.876Z,7.68
2022-10-23T12:37:26.586Z,10.00
2022-10-23T12:39:55.772Z,8.82
2022-10-23T12:42:25.158Z,8.90
2022-10-23T12:45:10.215Z,9.95
2022-10-23T12:50:23.904Z,11.05
2022-10-23T12:52:56.057Z,7.30
2022-10-23T12:55:24.638Z,7.95
2022-10-23T12:57:52.525Z,7.68
2022-10-23T13:00:22.929Z,7.30
2022-10-23T13:03:01.550Z,5.55
2022-10-23T13:05:29.571Z,8.65
2022-10-23T13:07:58.372Z,6.97
2022-10-23T13:10:39.141Z,8.60
2022-10-23T13:13:11.273Z,5.00
2022-10-23T13:15:43.399Z,7.57
2022-10-23T13:18:14.077Z,11.68
2022-10-23T13:20:57.686Z,8.63
2022-10-23T13:23:24.742Z,6.22
2022-10-23T13:26:01.376Z,6.55
2022-10-23T13:28:32.065Z,13.27
2022-10-23T13:31:06.954Z,7.18
2022-10-23T13:33:36.939Z,8.65
2022-10-23T13:36:21.786Z,5.85
2022-10-23T13:39:10.378Z,6.28
2022-10-23T13:41:44.197Z,9.38
2022-10-23T13:44:17.445Z,6.93
2022-10-23T13:46:44.926Z,9.35
2022-10-23T13:49:11.949Z,7.88
2022-10-23T13:51:48.612Z,5.05
2022-10-23T13:54:24.137Z,8.30
2022-10-23T13:56:51.738Z,7.15
2022-10-23T13:59:18.840Z,11.05
2022-10-23T14:01:46.875Z,5.97
2022-10-23T14:04:15.401Z,6.65
2022-10-23T14:06:42.762Z,9.10
2022-10-23T14:09:18.222Z,9.30
2022-10-23T14:14:12.174Z,10.18
2022-10-23T14:16:39.206Z,7.13
2022-10-23T14:19:06.132Z,9.07
2022-10-23T14:21:32.989Z,6.43
2022-10-23T14:23:59.956Z,6.43
2022-10-23T14:26:30.106Z,7.97
2022-10-23T14:29:00.735Z,6.57
2022-10-23T14:31:31.367Z,6.75
2022-10-23T14:34:00.709Z,9.63
2022-10-23T14:36:38.283Z,9.82
2022-10-23T14:39:15.575Z,7.85
2022-10-23T14:41:42.389Z,5.10
2022-10-23T14:44:09.228Z,6.68
2022-10-23T14:46:38.233Z,9.18
2022-10-23T14:49:05.353Z,7.25
2022-10-23T14:51:32.416Z,7.40
2022-10-23T14:54:04.132Z,6.57
2022-10-23T14:56:32.826Z,5.57
2022-10-23T14:59:03.524Z,7.82
2022-10-23T15:01:32.161Z,6.72
2022-10-23T15:03:59.500Z,9.27
2022-10-23T15:06:26.376Z,8.38
2022-10-23T15:08:55.452Z,4.97
2022-10-23T15:11:23.843Z,7.38
2022-10-23T15:13:51.078Z,10.40
2022-10-23T15:16:18.304Z,6.90
2022-10-23T15:18:45.283Z,7.07
2022-10-23T15:21:12.974Z,8.50
2022-10-23T15:23:42.339Z,5.20
2022-10-23T15:26:12.756Z,7.10
2022-10-23T15:28:39.646Z,6.22
2022-10-23T15:31:06.605Z,15.10
2022-10-23T15:33:33.484Z,5.80
2022-10-23T15:36:00.351Z,5.32
2022-10-23T15:38:27.274Z,5.70
2022-10-23T15:41:02.602Z,10.73
2022-10-23T15:45:56.502Z,8.63
2022-10-23T15:48:23.353Z,13.85
2022-10-23T15:50:50.209Z,5.80
2022-10-23T15:53:17.027Z,8.60
2022-10-23T15:55:43.798Z,6.78
2022-10-23T15:58:11.474Z,6.97
2022-10-23T16:00:39.545Z,6.38
2022-10-23T16:03:06.455Z,7.55
2022-10-23T16:05:33.362Z,8.35
2022-10-23T16:08:00.201Z,6.50
2022-10-23T16:10:27.023Z,7.40
2022-10-23T16:12:54.025Z,7.82
2022-10-23T16:15:20.874Z,9.73
2022-10-23T16:17:48.847Z,9.20
2022-10-23T16:20:16.146Z,5.57
2022-10-23T16:22:44.965Z,6.63
2022-10-23T16:25:12.014Z,10.13
2022-10-23T16:27:38.866Z,6.90
2022-10-23T16:30:08.977Z,7.13
2022-10-23T16:32:36.516Z,9.05
2022-10-23T16:35:03.402Z,6.15
2022-10-23T16:37:40.250Z,11.13
2022-10-23T16:40:13.378Z,10.32
2022-10-23T16:42:59.191Z,9.43
2022-10-23T16:45:35.668Z,8.32
2022-10-23T16:48:04.721Z,9.88
2022-10-23T16:50:31.605Z,8.90
2022-10-23T16:52:58.534Z,9.73
2022-10-23T16:55:25.310Z,9.93
2022-10-23T16:57:52.092Z,10.20
2022-10-23T17:00:21.985Z,9.35
2022-10-23T17:02:48.950Z,11.85
2022-10-23T17:05:15.888Z,6.43
2022-10-23T17:07:43.047Z,11.63
2022-10-23T17:10:10.253Z,12.05
2022-10-23T17:12:37.585Z,9.40
2022-10-23T17:15:05.074Z,10.35
2022-10-23T17:17:31.842Z,8.52
2022-10-23T17:19:58.617Z,11.15
2022-10-23T17:22:25.622Z,18.52
2022-10-23T17:24:53.128Z,11.60
2022-10-23T17:27:20.979Z,14.80
2022-10-23T17:29:47.901Z,11.63
2022-10-23T17:32:14.937Z,8.02
2022-10-23T17:34:41.796Z,11.02
2022-10-23T17:37:10.162Z,20.88
2022-10-23T17:39:36.924Z,16.08
2022-10-23T17:42:03.859Z,15.55
2022-10-23T17:44:30.740Z,12.98
2022-10-23T17:46:57.551Z,16.98
2022-10-23T17:49:25.287Z,10.43
2022-10-23T17:51:54.922Z,12.13
2022-10-23T17:54:22.371Z,8.80
2022-10-23T17:56:49.488Z,7.30
2022-10-23T17:59:18.834Z,7.18
2022-10-23T18:01:49.226Z,5.47
2022-10-23T18:04:18.427Z,4.78
2022-10-23T18:06:48.279Z,9.30
2022-10-23T18:09:15.488Z,4.07
2022-10-23T18:11:47.637Z,5.18
2022-10-23T18:14:16.105Z,4.07
2022-10-23T18:16:43.041Z,3.67
2022-10-23T18:19:11.143Z,7.55
2022-10-23T18:21:38.054Z,3.05
2022-10-23T18:24:05.325Z,2.28
2022-10-23T18:26:35.114Z,2.60
2022-10-23T18:29:07.127Z,3.55
2022-10-23T18:31:35.497Z,3.70
2022-10-23T18:34:04.998Z,3.05
2022-10-23T18:36:35.443Z,4.18
2022-10-23T18:39:02.975Z,4.10
2022-10-23T18:41:37.374Z,3.35
2022-10-23T18:44:04.468Z,9.27
2022-10-23T18:46:31.479Z,3.00
2022-10-23T18:48:58.513Z,1.80
2022-10-23T18:51:35.801Z,2.40
2022-10-23T18:54:08.710Z,5.72
2022-10-23T18:56:36.075Z,4.72
2022-10-23T18:59:05.878Z,4.00
2022-10-23T19:01:33.184Z,4.75
2022-10-23T19:04:01.626Z,9.27
2022-10-23T19:06:29.900Z,6.47
2022-10-23T19:08:57.238Z,6.60
2022-10-23T19:11:25.786Z,5.03
2022-10-23T19:13:52.642Z,8.30
2022-10-23T19:16:40.729Z,6.93
2022-10-23T19:19:14.970Z,6.45
2022-10-23T19:21:42.897Z,7.57
2022-10-23T19:24:14.765Z,5.63
2022-10-23T19:26:42.860Z,9.25
2022-10-23T19:29:13.207Z,8.30
2022-10-23T19:31:44.680Z,9.43
2022-10-23T19:34:11.548Z,6.18
2022-10-23T19:36:38.327Z,9.13
2022-10-23T19:39:05.163Z,7.63
2022-10-23T19:41:32.129Z,8.80
2022-10-23T19:43:59.056Z,8.02
2022-10-23T19:46:27.099Z,9.05
2022-10-23T19:48:53.978Z,9.68
2022-10-23T19:51:20.732Z,7.97
2022-10-23T19:53:47.840Z,8.43
2022-10-23T19:56:14.672Z,10.25
2022-10-23T19:58:41.708Z,11.38
2022-10-23T20:01:17.002Z,8.45
2022-10-23T20:06:21.177Z,9.40
2022-10-23T20:08:48.620Z,8.95
2022-10-23T20:11:21.738Z,8.32
2022-10-23T20:13:49.219Z,6.57
2022-10-23T20:16:20.850Z,10.55
2022-10-23T20:18:48.526Z,11.93
2022-10-23T20:21:16.239Z,8.13
2022-10-23T20:23:44.150Z,9.48
2022-10-23T20:26:16.064Z,7.35
2022-10-23T20:28:46.887Z,7.40
2022-10-23T20:31:15.750Z,12.55
2022-10-23T20:33:42.795Z,7.95
2022-10-23T20:36:25.298Z,9.38
2022-10-23T20:38:52.640Z,8.00
2022-10-23T20:41:19.977Z,8.35
2022-10-23T20:43:47.051Z,8.43
2022-10-23T20:46:14.074Z,11.52
2022-10-23T20:48:43.895Z,10.48
2022-10-23T20:51:13.649Z,6.70
2022-10-23T20:53:41.481Z,8.73
2022-10-23T20:56:11.668Z,7.32
2022-10-23T20:58:38.807Z,14.90
2022-10-23T21:01:08.467Z,9.93
2022-10-23T21:03:35.869Z,11.40
2022-10-23T21:06:11.942Z,7.22
2022-10-23T21:08:39.621Z,6.03
2022-10-23T21:11:08.005Z,6.70
2022-10-23T21:13:34.936Z,8.75
2022-10-23T21:16:24.784Z,4.75
2022-10-23T21:18:58.454Z,4.28
2022-10-23T21:21:26.485Z,5.13
2022-10-23T21:23:54.877Z,9.10
2022-10-23T21:26:23.506Z,6.63
2022-10-23T21:28:56.016Z,7.40
2022-10-23T21:31:33.926Z,9.20
2022-10-23T21:34:00.867Z,7.13
2022-10-23T21:36:29.846Z,5.55
2022-10-23T21:39:02.200Z,6.60
2022-10-23T21:41:32.182Z,6.43
2022-10-23T21:44:02.441Z,7.10
2022-10-23T21:46:30.489Z,4.38
2022-10-23T21:48:59.928Z,7.50
2022-10-23T21:51:29.728Z,3.72
2022-10-23T21:53:57.276Z,6.03
2022-10-23T21:56:40.318Z,4.88
2022-10-23T21:59:12.696Z,3.38
2022-10-23T22:01:41.693Z,2.90
2022-10-23T22:04:09.802Z,4.38
2022-10-23T22:06:37.063Z,8.30
2022-10-23T22:09:04.950Z,5.18
2022-10-23T22:11:31.817Z,2.10
2022-10-23T22:13:59.182Z,6.28
2022-10-23T22:16:26.647Z,7.95
2022-10-23T22:18:53.514Z,5.55
2022-10-23T22:21:24.315Z,4.80
2022-10-23T22:23:54.018Z,5.60
2022-10-23T22:26:26.209Z,7.38
2022-10-23T22:28:55.582Z,6.45
2022-10-23T22:31:25.582Z,4.43
2022-10-23T22:33:53.759Z,8.55
2022-10-23T22:36:21.247Z,7.38
2022-10-23T22:38:48.251Z,8.23
2022-10-23T22:41:15.870Z,5.40
2022-10-23T22:43:42.796Z,7.00
2022-10-23T22:46:18.383Z,7.47
2022-10-23T22:48:46.054Z,4.85
2022-10-23T22:51:14.849Z,3.40
2022-10-23T22:53:42.385Z,6.68
2022-10-23T22:56:11.757Z,9.65
2022-10-23T22:58:38.621Z,7.10
2022-10-23T23:01:28.714Z,4.72
2022-10-23T23:03:58.221Z,6.32
2022-10-23T23:06:28.509Z,4.25
2022-10-23T23:08:55.712Z,6.65
2022-10-23T23:11:23.393Z,5.25
2022-10-23T23:13:51.166Z,7.95
2022-10-23T23:16:23.779Z,7.63
2022-10-23T23:18:51.882Z,9.30
2022-10-23T23:21:19.621Z,8.73
2022-10-23T23:23:47.894Z,7.78
2022-10-23T23:26:15.790Z,5.68
2022-10-23T23:28:43.121Z,3.83
2022-10-23T23:31:16.446Z,7.82
2022-10-23T23:33:43.661Z,5.25
2022-10-23T23:36:13.126Z,5.90
2022-10-23T23:38:40.416Z,9.55
2022-10-23T23:41:10.679Z,6.90
2022-10-23T23:43:37.501Z,9.38
2022-10-23T23:46:04.369Z,6.18
2022-10-23T23:48:31.272Z,9.10
2022-10-23T23:50:58.052Z,7.32
2022-10-23T23:53:24.926Z,7.20
2022-10-23T23:55:51.744Z,9.13
2022-10-23T23:58:18.586Z,5.95
